sensor_id;sensor_type;location;lat;lon;timestamp;pressure;altitude;pressure_sealevel;temperature;humidity
11049;BME280;5577;42.706;23.160;2023-04-28T00:00:00;94346.66;;;4.78;88.09
11049;BME280;5577;42.706;23.160;2023-04-28T00:02:45;94352.53;;;4.84;86.73
11049;BME280;5577;42.706;23.160;2023-04-28T00:05:31;94341.72;;;4.77;91.49
11049;BME280;5577;42.706;23.160;2023-04-28T00:08:14;94342.63;;;4.72;89.38
11049;BME280;5577;42.706;23.160;2023-04-28T00:10:58;94253.44;;;4.08;91.01
11049;BME280;5577;42.706;23.160;2023-04-28T00:13:43;94345.09;;;4.69;90.06
11049;BME280;5577;42.706;23.160;2023-04-28T00:16:27;94343.81;;;4.58;92.76
11049;BME280;5577;42.706;23.160;2023-04-28T00:19:11;94283.03;;;4.17;94.89
11049;BME280;5577;42.706;23.160;2023-04-28T00:21:55;94348.84;;;4.46;93.51
11049;BME280;5577;42.706;23.160;2023-04-28T00:24:39;94353.03;;;4.47;98.34
11049;BME280;5577;42.706;23.160;2023-04-28T00:27:24;94347.47;;;4.48;93.05
11049;BME280;5577;42.706;23.160;2023-04-28T00:30:09;94337.25;;;4.38;95.08
11049;BME280;5577;42.706;23.160;2023-04-28T00:32:53;94343.00;;;4.49;92.29
11049;BME280;5577;42.706;23.160;2023-04-28T00:35:37;94345.00;;;4.52;93.01
11049;BME280;5577;42.706;23.160;2023-04-28T00:38:22;94349.97;;;4.53;91.82
11049;BME280;5577;42.706;23.160;2023-04-28T00:41:11;94354.88;;;4.46;93.30
11049;BME280;5577;42.706;23.160;2023-04-28T00:43:55;94355.03;;;4.50;91.43
11049;BME280;5577;42.706;23.160;2023-04-28T00:46:40;94311.75;;;4.22;93.98
11049;BME280;5577;42.706;23.160;2023-04-28T00:49:24;94344.81;;;4.40;90.32
11049;BME280;5577;42.706;23.160;2023-04-28T00:52:09;94357.03;;;4.53;86.05
11049;BME280;5577;42.706;23.160;2023-04-28T00:54:54;94351.97;;;4.56;88.12
11049;BME280;5577;42.706;23.160;2023-04-28T00:57:39;94288.13;;;4.13;85.63
11049;BME280;5577;42.706;23.160;2023-04-28T01:00:23;94353.69;;;4.61;84.66
11049;BME280;5577;42.706;23.160;2023-04-28T01:03:08;94358.66;;;4.62;85.41
11049;BME280;5577;42.706;23.160;2023-04-28T01:05:52;94352.91;;;4.60;83.89
11049;BME280;5577;42.706;23.160;2023-04-28T01:08:37;94362.16;;;4.58;84.70
11049;BME280;5577;42.706;23.160;2023-04-28T01:11:21;94362.81;;;4.63;83.98
11049;BME280;5577;42.706;23.160;2023-04-28T01:14:05;94287.16;;;4.01;85.90
11049;BME280;5577;42.706;23.160;2023-04-28T01:16:51;94364.09;;;4.44;89.88
11049;BME280;5577;42.706;23.160;2023-04-28T01:19:36;94373.75;;;4.35;88.94
11049;BME280;5577;42.706;23.160;2023-04-28T01:22:20;94355.31;;;4.18;91.88
11049;BME280;5577;42.706;23.160;2023-04-28T01:25:04;94367.72;;;4.26;90.98
11049;BME280;5577;42.706;23.160;2023-04-28T01:27:48;94373.06;;;4.21;94.51
11049;BME280;5577;42.706;23.160;2023-04-28T01:30:33;94381.31;;;4.06;100.00
11049;BME280;5577;42.706;23.160;2023-04-28T01:33:18;94381.25;;;3.97;100.00
11049;BME280;5577;42.706;23.160;2023-04-28T01:36:02;94371.00;;;3.87;100.00
11049;BME280;5577;42.706;23.160;2023-04-28T01:38:47;94386.25;;;3.85;100.00
11049;BME280;5577;42.706;23.160;2023-04-28T01:41:31;94375.81;;;3.72;100.00
11049;BME280;5577;42.706;23.160;2023-04-28T01:44:16;94320.25;;;3.31;100.00
11049;BME280;5577;42.706;23.160;2023-04-28T01:47:00;94382.56;;;3.64;100.00
11049;BME280;5577;42.706;23.160;2023-04-28T01:49:44;94386.34;;;3.58;100.00
11049;BME280;5577;42.706;23.160;2023-04-28T01:52:30;94348.19;;;3.08;100.00
11049;BME280;5577;42.706;23.160;2023-04-28T01:55:14;94383.28;;;3.43;100.00
11049;BME280;5577;42.706;23.160;2023-04-28T01:57:58;94383.78;;;3.45;100.00
11049;BME280;5577;42.706;23.160;2023-04-28T02:00:42;94377.78;;;3.31;100.00
11049;BME280;5577;42.706;23.160;2023-04-28T02:03:26;94377.66;;;3.36;100.00
11049;BME280;5577;42.706;23.160;2023-04-28T02:06:11;94382.41;;;3.34;100.00
11049;BME280;5577;42.706;23.160;2023-04-28T02:08:55;94389.66;;;3.50;100.00
11049;BME280;5577;42.706;23.160;2023-04-28T02:11:39;94390.97;;;3.39;100.00
11049;BME280;5577;42.706;23.160;2023-04-28T02:14:22;94385.34;;;3.32;100.00
11049;BME280;5577;42.706;23.160;2023-04-28T02:17:07;94387.88;;;3.24;100.00
11049;BME280;5577;42.706;23.160;2023-04-28T02:19:54;94399.69;;;3.21;100.00
11049;BME280;5577;42.706;23.160;2023-04-28T02:22:40;94390.50;;;3.10;100.00
11049;BME280;5577;42.706;23.160;2023-04-28T02:25:24;94389.84;;;3.04;100.00
11049;BME280;5577;42.706;23.160;2023-04-28T02:28:08;94396.81;;;2.95;100.00
11049;BME280;5577;42.706;23.160;2023-04-28T02:30:52;94400.19;;;2.96;100.00
11049;BME280;5577;42.706;23.160;2023-04-28T02:33:36;94401.38;;;2.90;100.00
11049;BME280;5577;42.706;23.160;2023-04-28T02:36:21;94366.13;;;2.60;100.00
11049;BME280;5577;42.706;23.160;2023-04-28T02:39:05;94391.00;;;2.71;100.00
11049;BME280;5577;42.706;23.160;2023-04-28T02:41:49;94396.22;;;2.85;100.00
11049;BME280;5577;42.706;23.160;2023-04-28T02:44:33;94409.41;;;2.80;100.00
11049;BME280;5577;42.706;23.160;2023-04-28T02:47:17;94413.28;;;2.82;100.00
11049;BME280;5577;42.706;23.160;2023-04-28T02:50:01;94411.34;;;2.88;100.00
11049;BME280;5577;42.706;23.160;2023-04-28T02:52:45;94409.03;;;2.86;100.00
11049;BME280;5577;42.706;23.160;2023-04-28T02:55:29;94416.47;;;2.79;100.00
11049;BME280;5577;42.706;23.160;2023-04-28T02:58:14;94425.97;;;2.75;100.00
11049;BME280;5577;42.706;23.160;2023-04-28T03:00:57;94421.41;;;2.94;100.00
11049;BME280;5577;42.706;23.160;2023-04-28T03:03:41;94436.16;;;3.04;100.00
11049;BME280;5577;42.706;23.160;2023-04-28T03:06:25;94427.22;;;2.91;100.00
11049;BME280;5577;42.706;23.160;2023-04-28T03:09:09;94437.88;;;2.95;100.00
11049;BME280;5577;42.706;23.160;2023-04-28T03:11:53;94370.00;;;2.63;100.00
11049;BME280;5577;42.706;23.160;2023-04-28T03:14:37;94426.63;;;3.22;100.00
11049;BME280;5577;42.706;23.160;2023-04-28T03:17:21;94416.78;;;3.05;100.00
11049;BME280;5577;42.706;23.160;2023-04-28T03:20:06;94432.25;;;3.15;100.00
11049;BME280;5577;42.706;23.160;2023-04-28T03:22:50;94434.88;;;3.15;100.00
11049;BME280;5577;42.706;23.160;2023-04-28T03:25:34;94391.50;;;2.87;100.00
11049;BME280;5577;42.706;23.160;2023-04-28T03:28:18;94445.34;;;3.15;100.00
11049;BME280;5577;42.706;23.160;2023-04-28T03:31:02;94454.84;;;3.11;100.00
11049;BME280;5577;42.706;23.160;2023-04-28T03:33:46;94460.25;;;3.15;100.00
11049;BME280;5577;42.706;23.160;2023-04-28T03:36:30;94455.81;;;3.15;100.00
11049;BME280;5577;42.706;23.160;2023-04-28T03:39:14;94463.66;;;3.15;100.00
11049;BME280;5577;42.706;23.160;2023-04-28T03:41:58;94407.75;;;2.84;100.00
11049;BME280;5577;42.706;23.160;2023-04-28T03:44:42;94472.94;;;3.35;100.00
11049;BME280;5577;42.706;23.160;2023-04-28T03:47:26;94476.41;;;3.44;100.00
11049;BME280;5577;42.706;23.160;2023-04-28T03:50:11;94472.06;;;3.39;100.00
11049;BME280;5577;42.706;23.160;2023-04-28T03:52:55;94478.06;;;3.53;100.00
11049;BME280;5577;42.706;23.160;2023-04-28T03:55:39;94489.19;;;3.72;100.00
11049;BME280;5577;42.706;23.160;2023-04-28T03:58:23;94491.78;;;3.72;100.00
11049;BME280;5577;42.706;23.160;2023-04-28T04:01:07;94490.72;;;3.87;100.00
11049;BME280;5577;42.706;23.160;2023-04-28T04:03:52;94495.25;;;3.95;100.00
11049;BME280;5577;42.706;23.160;2023-04-28T04:06:36;94405.06;;;3.52;98.66
11049;BME280;5577;42.706;23.160;2023-04-28T04:09:20;94496.81;;;4.18;100.00
11049;BME280;5577;42.706;23.160;2023-04-28T04:12:04;94410.50;;;3.77;100.00
11049;BME280;5577;42.706;23.160;2023-04-28T04:14:49;94492.47;;;4.35;100.00
11049;BME280;5577;42.706;23.160;2023-04-28T04:17:36;94468.41;;;4.33;100.00
11049;BME280;5577;42.706;23.160;2023-04-28T04:20:20;94500.03;;;4.59;100.00
11049;BME280;5577;42.706;23.160;2023-04-28T04:23:04;94468.94;;;4.44;95.34
11049;BME280;5577;42.706;23.160;2023-04-28T04:25:50;94503.84;;;4.75;93.04
11049;BME280;5577;42.706;23.160;2023-04-28T04:28:34;94505.50;;;4.93;92.69
11049;BME280;5577;42.706;23.160;2023-04-28T04:31:19;94506.78;;;5.04;94.78
11049;BME280;5577;42.706;23.160;2023-04-28T04:34:03;94487.31;;;5.05;91.72
11049;BME280;5577;42.706;23.160;2023-04-28T04:36:47;94488.16;;;5.14;89.62
11049;BME280;5577;42.706;23.160;2023-04-28T04:39:31;94404.91;;;4.67;89.25
11049;BME280;5577;42.706;23.160;2023-04-28T04:42:15;94511.88;;;5.39;86.59
11049;BME280;5577;42.706;23.160;2023-04-28T04:44:59;94469.44;;;5.07;86.04
11049;BME280;5577;42.706;23.160;2023-04-28T04:47:46;94501.16;;;5.27;85.91
11049;BME280;5577;42.706;23.160;2023-04-28T04:50:31;94514.19;;;5.49;86.44
11049;BME280;5577;42.706;23.160;2023-04-28T04:53:15;94527.97;;;5.46;85.82
11049;BME280;5577;42.706;23.160;2023-04-28T04:56:02;94522.56;;;5.51;85.09
11049;BME280;5577;42.706;23.160;2023-04-28T04:58:46;94532.78;;;5.61;86.69
11049;BME280;5577;42.706;23.160;2023-04-28T05:01:30;94526.31;;;5.59;84.92
11049;BME280;5577;42.706;23.160;2023-04-28T05:04:15;94534.97;;;5.68;85.11
11049;BME280;5577;42.706;23.160;2023-04-28T05:06:59;94466.69;;;5.20;87.57
11049;BME280;5577;42.706;23.160;2023-04-28T05:09:42;94533.53;;;6.01;87.59
11049;BME280;5577;42.706;23.160;2023-04-28T05:12:26;94540.69;;;6.26;88.69
11049;BME280;5577;42.706;23.160;2023-04-28T05:15:10;94538.81;;;6.35;83.99
11049;BME280;5577;42.706;23.160;2023-04-28T05:17:55;94467.69;;;5.97;83.47
11049;BME280;5577;42.706;23.160;2023-04-28T05:20:39;94536.50;;;6.59;81.26
11049;BME280;5577;42.706;23.160;2023-04-28T05:23:23;94534.34;;;6.70;80.89
11049;BME280;5577;42.706;23.160;2023-04-28T05:26:07;94516.69;;;6.70;78.17
11049;BME280;5577;42.706;23.160;2023-04-28T05:28:51;94531.84;;;6.73;75.42
11049;BME280;5577;42.706;23.160;2023-04-28T05:31:35;94531.53;;;6.75;74.89
11049;BME280;5577;42.706;23.160;2023-04-28T05:34:19;94504.31;;;6.71;78.00
11049;BME280;5577;42.706;23.160;2023-04-28T05:37:03;94538.47;;;7.05;73.75
11049;BME280;5577;42.706;23.160;2023-04-28T05:39:47;94535.84;;;7.05;70.27
11049;BME280;5577;42.706;23.160;2023-04-28T05:42:31;94498.44;;;6.57;70.15
11049;BME280;5577;42.706;23.160;2023-04-28T05:45:15;94527.63;;;6.98;71.23
11049;BME280;5577;42.706;23.160;2023-04-28T05:47:59;94540.91;;;7.10;68.99
11049;BME280;5577;42.706;23.160;2023-04-28T05:50:43;94534.13;;;7.09;68.91
11049;BME280;5577;42.706;23.160;2023-04-28T05:53:27;94461.75;;;6.60;66.13
11049;BME280;5577;42.706;23.160;2023-04-28T05:56:11;94539.22;;;7.05;68.42
11049;BME280;5577;42.706;23.160;2023-04-28T05:58:56;94545.03;;;7.28;68.23
11049;BME280;5577;42.706;23.160;2023-04-28T06:01:41;94543.47;;;7.35;65.57
11049;BME280;5577;42.706;23.160;2023-04-28T06:04:25;94529.13;;;7.24;67.11
11049;BME280;5577;42.706;23.160;2023-04-28T06:07:09;94530.13;;;7.40;66.66
11049;BME280;5577;42.706;23.160;2023-04-28T06:09:53;94529.47;;;7.52;66.46
11049;BME280;5577;42.706;23.160;2023-04-28T06:12:37;94537.44;;;7.72;64.59
11049;BME280;5577;42.706;23.160;2023-04-28T06:15:22;94531.94;;;7.86;65.80
11049;BME280;5577;42.706;23.160;2023-04-28T06:18:06;94520.69;;;7.97;64.83
11049;BME280;5577;42.706;23.160;2023-04-28T06:20:50;94545.44;;;8.13;63.74
11049;BME280;5577;42.706;23.160;2023-04-28T06:23:33;94533.50;;;8.07;62.81
11049;BME280;5577;42.706;23.160;2023-04-28T06:26:18;94544.78;;;8.16;63.33
11049;BME280;5577;42.706;23.160;2023-04-28T06:29:03;94480.78;;;7.87;62.58
11049;BME280;5577;42.706;23.160;2023-04-28T06:31:47;94534.22;;;8.25;61.85
11049;BME280;5577;42.706;23.160;2023-04-28T06:34:31;94534.78;;;8.51;66.31
11049;BME280;5577;42.706;23.160;2023-04-28T06:37:15;94537.56;;;8.54;63.21
11049;BME280;5577;42.706;23.160;2023-04-28T06:39:59;94544.56;;;8.71;61.92
11049;BME280;5577;42.706;23.160;2023-04-28T06:42:43;94538.19;;;8.72;59.98
11049;BME280;5577;42.706;23.160;2023-04-28T06:45:27;94544.81;;;8.78;60.84
11049;BME280;5577;42.706;23.160;2023-04-28T06:48:11;94546.34;;;9.00;59.40
11049;BME280;5577;42.706;23.160;2023-04-28T06:50:55;94525.56;;;9.10;58.22
11049;BME280;5577;42.706;23.160;2023-04-28T06:53:39;94540.91;;;9.29;57.80
11049;BME280;5577;42.706;23.160;2023-04-28T06:56:24;94472.25;;;8.84;58.19
11049;BME280;5577;42.706;23.160;2023-04-28T06:59:08;94541.06;;;9.44;56.82
11049;BME280;5577;42.706;23.160;2023-04-28T07:01:52;94537.44;;;9.49;57.10
11049;BME280;5577;42.706;23.160;2023-04-28T07:04:36;94543.50;;;9.17;54.47
11049;BME280;5577;42.706;23.160;2023-04-28T07:07:20;94538.78;;;9.10;54.70
11049;BME280;5577;42.706;23.160;2023-04-28T07:10:05;94540.84;;;9.37;54.84
11049;BME280;5577;42.706;23.160;2023-04-28T07:12:50;94535.03;;;9.56;55.26
11049;BME280;5577;42.706;23.160;2023-04-28T07:15:36;94528.63;;;9.57;54.48
11049;BME280;5577;42.706;23.160;2023-04-28T07:18:21;94463.75;;;9.35;54.96
11049;BME280;5577;42.706;23.160;2023-04-28T07:21:05;94532.72;;;9.78;50.33
11049;BME280;5577;42.706;23.160;2023-04-28T07:23:49;94527.09;;;9.80;52.56
11049;BME280;5577;42.706;23.160;2023-04-28T07:26:33;94520.59;;;10.13;52.69
11049;BME280;5577;42.706;23.160;2023-04-28T07:29:17;94527.25;;;10.47;52.79
11049;BME280;5577;42.706;23.160;2023-04-28T07:32:01;94521.69;;;10.64;52.46
11049;BME280;5577;42.706;23.160;2023-04-28T07:34:48;94433.41;;;10.17;50.86
11049;BME280;5577;42.706;23.160;2023-04-28T07:37:32;94523.69;;;10.67;49.63
11049;BME280;5577;42.706;23.160;2023-04-28T07:40:16;94511.50;;;10.50;50.52
11049;BME280;5577;42.706;23.160;2023-04-28T07:43:00;94514.28;;;10.69;49.90
11049;BME280;5577;42.706;23.160;2023-04-28T07:45:45;94517.28;;;10.95;49.61
11049;BME280;5577;42.706;23.160;2023-04-28T07:48:31;94516.56;;;10.83;48.67
11049;BME280;5577;42.706;23.160;2023-04-28T07:51:15;94519.25;;;10.71;49.10
11049;BME280;5577;42.706;23.160;2023-04-28T07:53:59;94457.44;;;10.51;50.37
11049;BME280;5577;42.706;23.160;2023-04-28T07:56:44;94519.50;;;10.66;48.59
11049;BME280;5577;42.706;23.160;2023-04-28T07:59:28;94516.75;;;10.90;50.67
11049;BME280;5577;42.706;23.160;2023-04-28T08:02:12;94517.69;;;11.25;48.61
11049;BME280;5577;42.706;23.160;2023-04-28T08:04:57;94515.91;;;11.44;48.19
11049;BME280;5577;42.706;23.160;2023-04-28T08:07:41;94512.94;;;11.46;48.07
11049;BME280;5577;42.706;23.160;2023-04-28T08:10:27;94501.09;;;11.59;48.48
11049;BME280;5577;42.706;23.160;2023-04-28T08:13:11;94514.66;;;11.85;49.47
11049;BME280;5577;42.706;23.160;2023-04-28T08:15:55;94400.91;;;11.33;48.66
11049;BME280;5577;42.706;23.160;2023-04-28T08:18:39;94516.00;;;12.10;48.06
11049;BME280;5577;42.706;23.160;2023-04-28T08:21:23;94461.09;;;11.95;47.78
11049;BME280;5577;42.706;23.160;2023-04-28T08:24:07;94518.47;;;12.19;46.04
11049;BME280;5577;42.706;23.160;2023-04-28T08:26:54;94497.53;;;12.33;47.12
11049;BME280;5577;42.706;23.160;2023-04-28T08:29:38;94509.25;;;12.47;46.26
11049;BME280;5577;42.706;23.160;2023-04-28T08:32:23;94509.72;;;12.72;45.97
11049;BME280;5577;42.706;23.160;2023-04-28T08:35:07;94522.66;;;12.73;45.15
11049;BME280;5577;42.706;23.160;2023-04-28T08:37:51;94431.09;;;12.29;43.17
11049;BME280;5577;42.706;23.160;2023-04-28T08:40:36;94517.16;;;13.01;43.06
11049;BME280;5577;42.706;23.160;2023-04-28T08:43:20;94522.38;;;13.16;43.00
11049;BME280;5577;42.706;23.160;2023-04-28T08:46:05;94524.78;;;12.83;40.92
11049;BME280;5577;42.706;23.160;2023-04-28T08:48:50;94444.66;;;12.43;43.05
11049;BME280;5577;42.706;23.160;2023-04-28T08:51:48;94498.81;;;13.15;43.38
11049;BME280;5577;42.706;23.160;2023-04-28T08:54:35;94501.16;;;13.61;44.21
11049;BME280;5577;42.706;23.160;2023-04-28T08:57:20;94503.59;;;13.96;41.61
11049;BME280;5577;42.706;23.160;2023-04-28T09:00:05;94435.06;;;13.63;41.34
11049;BME280;5577;42.706;23.160;2023-04-28T09:02:49;94500.44;;;14.13;41.95
11049;BME280;5577;42.706;23.160;2023-04-28T09:05:35;94494.72;;;14.37;42.11
11049;BME280;5577;42.706;23.160;2023-04-28T09:08:19;94503.84;;;14.36;39.47
11049;BME280;5577;42.706;23.160;2023-04-28T09:11:07;94488.91;;;14.58;40.14
11049;BME280;5577;42.706;23.160;2023-04-28T09:13:52;94490.88;;;14.94;39.62
11049;BME280;5577;42.706;23.160;2023-04-28T09:16:39;94487.25;;;15.09;38.92
11049;BME280;5577;42.706;23.160;2023-04-28T09:19:32;94495.28;;;15.49;38.92
11049;BME280;5577;42.706;23.160;2023-04-28T09:22:17;94477.03;;;15.51;38.09
11049;BME280;5577;42.706;23.160;2023-04-28T09:25:10;94454.41;;;15.38;38.74
11049;BME280;5577;42.706;23.160;2023-04-28T09:27:54;94468.94;;;15.91;36.34
11049;BME280;5577;42.706;23.160;2023-04-28T09:30:38;94463.34;;;14.83;36.95
11049;BME280;5577;42.706;23.160;2023-04-28T09:33:25;94453.38;;;14.47;38.15
11049;BME280;5577;42.706;23.160;2023-04-28T09:36:09;94468.09;;;15.36;38.16
11049;BME280;5577;42.706;23.160;2023-04-28T09:38:56;94468.25;;;15.97;36.69
11049;BME280;5577;42.706;23.160;2023-04-28T09:41:42;94457.47;;;15.83;36.09
11049;BME280;5577;42.706;23.160;2023-04-28T09:44:27;94457.06;;;15.78;34.72
11049;BME280;5577;42.706;23.160;2023-04-28T09:47:20;94442.28;;;15.44;35.71
11049;BME280;5577;42.706;23.160;2023-04-28T09:50:07;94446.00;;;15.79;35.62
11049;BME280;5577;42.706;23.160;2023-04-28T09:52:56;94447.09;;;15.75;37.05
11049;BME280;5577;42.706;23.160;2023-04-28T09:55:42;94444.72;;;16.20;34.50
11049;BME280;5577;42.706;23.160;2023-04-28T09:58:28;94383.47;;;15.80;33.65
11049;BME280;5577;42.706;23.160;2023-04-28T10:01:12;94439.63;;;16.59;35.22
11049;BME280;5577;42.706;23.160;2023-04-28T10:03:59;94435.16;;;16.94;34.30
11049;BME280;5577;42.706;23.160;2023-04-28T10:06:43;94423.75;;;17.08;35.89
11049;BME280;5577;42.706;23.160;2023-04-28T10:09:30;94423.81;;;17.47;31.81
11049;BME280;5577;42.706;23.160;2023-04-28T10:12:19;94401.63;;;17.36;32.33
11049;BME280;5577;42.706;23.160;2023-04-28T10:15:04;94421.91;;;17.58;30.96
11049;BME280;5577;42.706;23.160;2023-04-28T10:17:49;94421.56;;;17.63;30.32
11049;BME280;5577;42.706;23.160;2023-04-28T10:20:33;94406.53;;;18.28;31.63
11049;BME280;5577;42.706;23.160;2023-04-28T10:26:20;94402.44;;;19.64;29.24
11049;BME280;5577;42.706;23.160;2023-04-28T10:29:07;94382.59;;;20.66;27.82
11049;BME280;5577;42.706;23.160;2023-04-28T10:32:13;94408.66;;;21.33;25.59
11049;BME280;5577;42.706;23.160;2023-04-28T10:38:16;94349.72;;;22.07;24.47
11049;BME280;5577;42.706;23.160;2023-04-28T10:41:01;94389.50;;;23.21;23.61
11049;BME280;5577;42.706;23.160;2023-04-28T10:43:48;94388.97;;;23.45;25.15
11049;BME280;5577;42.706;23.160;2023-04-28T10:46:59;94376.72;;;23.73;24.58
11049;BME280;5577;42.706;23.160;2023-04-28T10:55:33;94374.34;;;25.34;21.66
11049;BME280;5577;42.706;23.160;2023-04-28T11:04:07;94292.41;;;24.51;22.24
11049;BME280;5577;42.706;23.160;2023-04-28T11:07:15;94362.91;;;25.89;21.32
11049;BME280;5577;42.706;23.160;2023-04-28T11:09:59;94364.38;;;25.56;21.20
11049;BME280;5577;42.706;23.160;2023-04-28T11:16:05;94355.56;;;27.31;19.53
11049;BME280;5577;42.706;23.160;2023-04-28T11:21:38;94298.50;;;28.25;19.32
11049;BME280;5577;42.706;23.160;2023-04-28T11:24:23;94345.25;;;28.41;18.18
11049;BME280;5577;42.706;23.160;2023-04-28T11:27:08;94327.56;;;27.61;19.29
11049;BME280;5577;42.706;23.160;2023-04-28T11:29:52;94278.66;;;29.20;18.55
11049;BME280;5577;42.706;23.160;2023-04-28T11:32:36;94308.34;;;29.27;18.29
11049;BME280;5577;42.706;23.160;2023-04-28T11:35:22;94341.22;;;29.56;17.64
11049;BME280;5577;42.706;23.160;2023-04-28T11:38:06;94326.06;;;29.22;18.55
11049;BME280;5577;42.706;23.160;2023-04-28T11:40:57;94324.41;;;29.25;17.78
11049;BME280;5577;42.706;23.160;2023-04-28T11:43:41;94294.81;;;28.82;18.89
11049;BME280;5577;42.706;23.160;2023-04-28T11:46:25;94322.75;;;29.18;18.41
11049;BME280;5577;42.706;23.160;2023-04-28T11:49:09;94311.00;;;29.77;17.57
11049;BME280;5577;42.706;23.160;2023-04-28T11:51:54;94261.47;;;30.46;17.30
11049;BME280;5577;42.706;23.160;2023-04-28T11:54:38;94313.97;;;30.36;17.81
11049;BME280;5577;42.706;23.160;2023-04-28T11:57:25;94306.38;;;28.41;18.55
11049;BME280;5577;42.706;23.160;2023-04-28T12:00:13;94319.75;;;29.81;18.41
11049;BME280;5577;42.706;23.160;2023-04-28T12:03:08;94310.91;;;28.62;18.60
11049;BME280;5577;42.706;23.160;2023-04-28T12:05:52;94275.97;;;30.38;17.23
11049;BME280;5577;42.706;23.160;2023-04-28T12:08:37;94292.97;;;31.14;17.39
11049;BME280;5577;42.706;23.160;2023-04-28T12:11:21;94294.44;;;31.93;16.82
11049;BME280;5577;42.706;23.160;2023-04-28T12:14:06;94297.25;;;32.39;16.93
11049;BME280;5577;42.706;23.160;2023-04-28T12:16:50;94291.69;;;31.10;17.10
11049;BME280;5577;42.706;23.160;2023-04-28T12:19:44;94285.59;;;32.04;17.25
11049;BME280;5577;42.706;23.160;2023-04-28T12:22:29;94287.72;;;33.06;16.66
11049;BME280;5577;42.706;23.160;2023-04-28T12:25:18;94297.09;;;32.28;16.52
11049;BME280;5577;42.706;23.160;2023-04-28T12:30:46;94197.22;;;30.94;16.76
11049;BME280;5577;42.706;23.160;2023-04-28T12:33:30;94220.50;;;30.46;16.23
11049;BME280;5577;42.706;23.160;2023-04-28T12:36:20;94275.00;;;29.55;16.75
11049;BME280;5577;42.706;23.160;2023-04-28T12:39:04;94284.50;;;29.04;17.10
11049;BME280;5577;42.706;23.160;2023-04-28T12:41:49;94218.06;;;29.95;16.54
11049;BME280;5577;42.706;23.160;2023-04-28T12:44:34;94268.25;;;29.00;16.84
11049;BME280;5577;42.706;23.160;2023-04-28T12:47:18;94262.38;;;29.11;17.65
11049;BME280;5577;42.706;23.160;2023-04-28T12:50:03;94263.31;;;29.87;17.30
11049;BME280;5577;42.706;23.160;2023-04-28T12:52:48;94260.56;;;30.64;17.46
11049;BME280;5577;42.706;23.160;2023-04-28T12:55:31;94264.75;;;29.18;17.74
11049;BME280;5577;42.706;23.160;2023-04-28T12:58:16;94227.84;;;29.64;17.97
11049;BME280;5577;42.706;23.160;2023-04-28T13:01:01;94257.63;;;30.53;17.77
11049;BME280;5577;42.706;23.160;2023-04-28T13:03:45;94218.22;;;29.21;17.12
11049;BME280;5577;42.706;23.160;2023-04-28T13:06:31;94253.69;;;29.77;18.23
11049;BME280;5577;42.706;23.160;2023-04-28T13:09:15;94204.34;;;29.57;17.06
11049;BME280;5577;42.706;23.160;2023-04-28T13:11:59;94236.59;;;31.17;16.43
11049;BME280;5577;42.706;23.160;2023-04-28T13:14:45;94248.81;;;30.20;17.58
11049;BME280;5577;42.706;23.160;2023-04-28T13:17:30;94234.28;;;28.78;17.76
11049;BME280;5577;42.706;23.160;2023-04-28T13:20:14;94243.91;;;28.97;17.26
11049;BME280;5577;42.706;23.160;2023-04-28T13:22:57;94227.25;;;29.04;17.22
11049;BME280;5577;42.706;23.160;2023-04-28T13:25:41;94238.47;;;30.24;16.99
11049;BME280;5577;42.706;23.160;2023-04-28T13:28:27;94232.88;;;30.71;16.75
11049;BME280;5577;42.706;23.160;2023-04-28T13:31:13;94232.66;;;30.45;16.44
11049;BME280;5577;42.706;23.160;2023-04-28T13:33:57;94085.50;;;29.65;15.69
11049;BME280;5577;42.706;23.160;2023-04-28T13:36:43;94233.44;;;31.73;16.25
11049;BME280;5577;42.706;23.160;2023-04-28T13:39:27;94218.69;;;31.50;15.89
11049;BME280;5577;42.706;23.160;2023-04-28T13:42:11;94194.94;;;29.11;16.71
11049;BME280;5577;42.706;23.160;2023-04-28T13:44:56;94221.34;;;28.46;18.48
11049;BME280;5577;42.706;23.160;2023-04-28T13:47:40;94220.91;;;28.47;18.03
11049;BME280;5577;42.706;23.160;2023-04-28T13:50:24;94221.22;;;30.18;17.85
11049;BME280;5577;42.706;23.160;2023-04-28T13:53:08;94205.81;;;30.44;16.41
11049;BME280;5577;42.706;23.160;2023-04-28T13:55:52;94209.25;;;31.71;15.97
11049;BME280;5577;42.706;23.160;2023-04-28T13:58:40;94212.13;;;32.48;15.28
11049;BME280;5577;42.706;23.160;2023-04-28T14:01:24;94204.59;;;32.17;15.32
11049;BME280;5577;42.706;23.160;2023-04-28T14:04:08;94205.34;;;30.89;16.61
11049;BME280;5577;42.706;23.160;2023-04-28T14:06:52;94207.28;;;31.92;16.43
11049;BME280;5577;42.706;23.160;2023-04-28T14:09:36;94188.25;;;31.43;16.14
11049;BME280;5577;42.706;23.160;2023-04-28T14:12:20;94161.50;;;31.52;16.47
11049;BME280;5577;42.706;23.160;2023-04-28T14:15:05;94215.03;;;31.93;16.03
11049;BME280;5577;42.706;23.160;2023-04-28T14:17:49;94201.06;;;31.71;15.94
11049;BME280;5577;42.706;23.160;2023-04-28T14:20:34;94181.22;;;30.73;16.66
11049;BME280;5577;42.706;23.160;2023-04-28T14:23:19;94193.19;;;30.17;17.24
11049;BME280;5577;42.706;23.160;2023-04-28T14:26:03;94203.03;;;27.38;18.74
11049;BME280;5577;42.706;23.160;2023-04-28T14:28:47;94200.41;;;24.88;20.86
11049;BME280;5577;42.706;23.160;2023-04-28T14:31:31;94183.13;;;26.31;20.61
11049;BME280;5577;42.706;23.160;2023-04-28T14:34:15;94187.47;;;26.81;20.30
11049;BME280;5577;42.706;23.160;2023-04-28T14:36:59;94182.69;;;25.90;20.37
11049;BME280;5577;42.706;23.160;2023-04-28T14:39:43;94178.31;;;24.65;20.72
11049;BME280;5577;42.706;23.160;2023-04-28T14:42:28;94156.91;;;23.76;22.14
11049;BME280;5577;42.706;23.160;2023-04-28T14:45:14;94179.69;;;24.44;22.24
11049;BME280;5577;42.706;23.160;2023-04-28T14:47:58;94175.78;;;25.08;21.15
11049;BME280;5577;42.706;23.160;2023-04-28T14:50:42;94175.31;;;25.35;21.02
11049;BME280;5577;42.706;23.160;2023-04-28T14:53:27;94079.00;;;23.46;22.13
11049;BME280;5577;42.706;23.160;2023-04-28T14:56:11;94173.06;;;23.79;22.41
11049;BME280;5577;42.706;23.160;2023-04-28T14:58:55;94175.19;;;24.79;21.48
11049;BME280;5577;42.706;23.160;2023-04-28T15:01:39;94157.41;;;24.65;21.21